Time;durP1;ratioP1;P1;durP2;ratioP2;P2;SDS_P1;SDS_P2;PMS_P1;PMS_P2;Temp;Humidity;BMP_temperature;BMP_pressure;BME280_temperature;BME280_humidity;BME280_pressure;Samples;Min_cycle;Max_cycle;Signal;HPM_P1;HPM_P2
2023/09/18 00:00:51;;;;;;;0.00;0.00;;;18.50;99.90;;;;;;6216562;23;20020;-86
2023/09/18 00:03:24;;;;;;;0.00;0.00;;;18.50;99.90;;;;;;6189649;23;20058;-86
2023/09/18 00:05:50;;;;;;;0.00;0.00;;;18.50;99.90;;;;;;6190177;23;20424;-84
2023/09/18 00:08:17;;;;;;;0.00;0.00;;;18.40;99.90;;;;;;6190037;23;20013;-86
2023/09/18 00:10:47;;;;;;;0.00;0.00;;;18.50;99.90;;;;;;6189814;23;20008;-85
2023/09/18 00:13:13;;;;;;;0.00;0.00;;;18.10;99.90;;;;;;6190080;23;20008;-85
2023/09/18 00:15:40;;;;;;;0.00;0.00;;;18.50;99.90;;;;;;6187639;23;20534;-84
2023/09/18 00:18:06;;;;;;;0.00;0.00;;;18.50;99.90;;;;;;6188929;23;20008;-85
2023/09/18 00:20:32;;;;;;;0.00;0.00;;;18.40;99.90;;;;;;6188614;23;20336;-85
2023/09/18 00:22:58;;;;;;;0.00;0.00;;;;;;;;;;6189589;23;20442;-84
2023/09/18 00:25:24;;;;;;;0.00;0.00;;;;;;;;;;6189409;23;20001;-83
2023/09/18 00:27:51;;;;;;;0.00;0.00;;;;;;;;;;6189439;23;20000;-85
2023/09/18 00:30:17;;;;;;;0.00;0.00;;;;;;;;;;6187759;23;20032;-84
2023/09/18 00:32:43;;;;;;;0.00;0.00;;;;;;;;;;6188559;23;20036;-85
2023/09/18 00:35:09;;;;;;;0.00;0.00;;;18.70;99.90;;;;;;6214072;23;20001;-85
2023/09/18 00:37:37;;;;;;;0.00;0.00;;;;;;;;;;6189050;23;20039;-86
2023/09/18 00:40:04;;;;;;;0.00;0.00;;;18.70;99.90;;;;;;6188886;23;20001;-84
2023/09/18 00:42:30;;;;;;;0.00;0.00;;;18.60;99.90;;;;;;6189945;23;19997;-85
2023/09/18 00:44:56;;;;;;;0.00;0.00;;;;;;;;;;6216178;23;20024;-82
2023/09/18 00:47:21;;;;;;;0.00;0.00;;;18.80;99.90;;;;;;6187815;23;20012;-86
2023/09/18 00:49:49;;;;;;;0.00;0.00;;;18.70;99.90;;;;;;6189145;23;20249;-85
2023/09/18 00:52:16;;;;;;;0.00;0.00;;;18.70;99.90;;;;;;6188743;23;20087;-85
2023/09/18 00:54:43;;;;;;;0.00;0.00;;;18.60;99.90;;;;;;6189026;23;20012;-85
2023/09/18 00:57:10;;;;;;;0.00;0.00;;;18.60;99.90;;;;;;6216055;23;19997;-84
2023/09/18 00:59:38;;;;;;;0.00;0.00;;;18.60;99.90;;;;;;6164591;23;20008;-85
2023/09/18 01:02:04;;;;;;;0.00;0.00;;;;;;;;;;6187732;23;20011;-85
2023/09/18 01:04:32;;;;;;;0.00;0.00;;;;;;;;;;6215086;23;20016;-85
2023/09/18 01:06:59;;;;;;;0.00;0.00;;;18.80;99.90;;;;;;6189839;23;20358;-85
2023/09/18 01:09:24;;;;;;;0.00;0.00;;;18.60;99.90;;;;;;6188804;23;20000;-85
2023/09/18 01:12:13;;;;;;;0.00;0.00;;;18.70;99.90;;;;;;6216241;23;20012;-85
2023/09/18 01:15:01;;;;;;;0.00;0.00;;;18.50;99.90;;;;;;6187042;23;20008;-86
2023/09/18 01:17:26;;;;;;;0.00;0.00;;;18.40;99.90;;;;;;6187779;23;20008;-85
2023/09/18 01:19:52;;;;;;;0.00;0.00;;;18.50;99.90;;;;;;6187765;23;20040;-85
2023/09/18 01:22:19;;;;;;;0.00;0.00;;;18.50;99.90;;;;;;6188770;23;20355;-85
2023/09/18 01:24:49;;;;;;;0.00;0.00;;;18.40;99.90;;;;;;6187904;23;20005;-86
2023/09/18 01:27:17;;;;;;;0.00;0.00;;;18.40;99.90;;;;;;6189458;23;20004;-86
2023/09/18 01:29:47;;;;;;;0.00;0.00;;;18.40;99.90;;;;;;6188603;23;20030;-85
2023/09/18 01:32:13;;;;;;;0.00;0.00;;;18.40;99.90;;;;;;6212227;23;20014;-84
2023/09/18 01:34:48;;;;;;;0.00;0.00;;;18.40;99.90;;;;;;6188674;23;20008;-85
2023/09/18 01:37:16;;;;;;;0.00;0.00;;;18.40;99.90;;;;;;6187559;23;20015;-85
2023/09/18 01:39:42;;;;;;;0.00;0.00;;;18.30;99.90;;;;;;6188376;23;20036;-85
2023/09/18 01:42:11;;;;;;;0.00;0.00;;;18.20;99.90;;;;;;6188888;23;20037;-84
2023/09/18 01:44:38;;;;;;;0.00;0.00;;;18.30;99.90;;;;;;6187296;23;20001;-84
2023/09/18 01:47:06;;;;;;;0.00;0.00;;;18.40;99.90;;;;;;6163328;23;20032;-85
2023/09/18 01:49:34;;;;;;;0.00;0.00;;;18.40;99.90;;;;;;6187940;23;20012;-85
2023/09/18 01:52:00;;;;;;;0.00;0.00;;;18.50;99.90;;;;;;6187630;23;20449;-85
2023/09/18 01:54:26;;;;;;;0.00;0.00;;;18.40;99.90;;;;;;6187715;23;20059;-86
2023/09/18 01:56:53;;;;;;;0.00;0.00;;;18.60;99.90;;;;;;6188655;23;20004;-85
2023/09/18 01:59:19;;;;;;;0.00;0.00;;;18.60;99.90;;;;;;6187197;23;20035;-84
2023/09/18 02:01:44;;;;;;;0.00;0.00;;;18.50;99.90;;;;;;6213316;23;20428;-85
2023/09/18 02:04:10;;;;;;;0.00;0.00;;;18.50;99.90;;;;;;6188358;23;20000;-85
2023/09/18 02:06:36;;;;;;;0.00;0.00;;;18.60;99.90;;;;;;6188290;23;20067;-85
2023/09/18 02:09:03;;;;;;;0.00;0.00;;;;;;;;;;6188417;23;20001;-85
2023/09/18 02:11:29;;;;;;;0.00;0.00;;;18.60;99.90;;;;;;6187875;23;20492;-86
2023/09/18 02:13:54;;;;;;;0.00;0.00;;;18.50;99.90;;;;;;6186790;23;20004;-85
2023/09/18 02:16:23;;;;;;;0.00;0.00;;;;;;;;;;6186472;23;20039;-84
2023/09/18 02:18:49;;;;;;;0.00;0.00;;;;;;;;;;6188720;23;20489;-85
2023/09/18 02:21:21;;;;;;;0.00;0.00;;;18.50;99.90;;;;;;6188831;23;20083;-85
2023/09/18 02:23:51;;;;;;;0.00;0.00;;;18.40;99.90;;;;;;6187189;23;20011;-85
2023/09/18 02:26:17;;;;;;;0.00;0.00;;;18.40;99.90;;;;;;6189051;23;20008;-85
2023/09/18 02:28:43;;;;;;;0.00;0.00;;;18.40;99.90;;;;;;6188536;23;20083;-85
2023/09/18 02:31:09;;;;;;;0.00;0.00;;;;;;;;;;6189051;23;20012;-84
2023/09/18 02:33:35;;;;;;;0.00;0.00;;;;;;;;;;6186583;23;20059;-84
2023/09/18 02:36:01;;;;;;;0.00;0.00;;;;;;;;;;6187866;23;20491;-85
2023/09/18 02:38:28;;;;;;;0.00;0.00;;;18.40;99.90;;;;;;6188523;23;20004;-85
2023/09/18 02:40:54;;;;;;;0.00;0.00;;;18.30;99.90;;;;;;6184752;23;20340;-85
2023/09/18 02:43:20;;;;;;;0.00;0.00;;;;;;;;;;6187857;23;20015;-85
2023/09/18 02:45:45;;;;;;;0.00;0.00;;;;;;;;;;6187428;23;20006;-85
2023/09/18 02:48:12;;;;;;;0.00;0.00;;;;;;;;;;6187432;23;19996;-84
2023/09/18 02:50:37;;;;;;;0.00;0.00;;;18.30;99.90;;;;;;6186758;23;20344;-86
2023/09/18 02:53:06;;;;;;;0.00;0.00;;;18.30;99.90;;;;;;6206830;22;20016;-88
2023/09/18 02:55:32;;;;;;;0.00;0.00;;;18.30;99.90;;;;;;6240611;23;20011;-88
2023/09/18 02:57:58;;;;;;;0.00;0.00;;;;;;;;;;6242472;23;20004;-88
2023/09/18 03:00:24;;;;;;;0.00;0.00;;;18.30;99.90;;;;;;6239692;23;20076;-88
2023/09/18 03:02:50;;;;;;;0.00;0.00;;;;;;;;;;6229383;23;20001;-86
2023/09/18 03:05:16;;;;;;;0.00;0.00;;;;;;;;;;6210149;23;20095;-87
2023/09/18 03:07:42;;;;;;;0.00;0.00;;;18.20;99.90;;;;;;6211493;23;20001;-87
2023/09/18 03:10:09;;;;;;;0.00;0.00;;;18.20;99.90;;;;;;6210380;23;20043;-88
2023/09/18 03:12:34;;;;;;;0.00;0.00;;;18.10;99.90;;;;;;6211896;23;20004;-88
2023/09/18 03:15:00;;;;;;;0.00;0.00;;;;;;;;;;6209729;23;20047;-88
2023/09/18 03:17:26;;;;;;;0.00;0.00;;;;;;;;;;6208976;23;20011;-88
2023/09/18 03:19:52;;;;;;;0.00;0.00;;;;;;;;;;6211356;23;20004;-88
2023/09/18 03:22:18;;;;;;;0.00;0.00;;;;;;;;;;6211766;23;20035;-86
2023/09/18 03:24:44;;;;;;;0.00;0.00;;;;;;;;;;6210592;23;19997;-88
2023/09/18 03:27:10;;;;;;;0.00;0.00;;;18.50;99.90;;;;;;6210636;23;20083;-88
2023/09/18 03:29:35;;;;;;;0.00;0.00;;;;;;;;;;6208325;23;20083;-88
2023/09/18 03:32:01;;;;;;;0.00;0.00;;;;;;;;;;6211001;23;20471;-89
2023/09/18 03:34:27;;;;;;;0.00;0.00;;;;;;;;;;6212565;23;20011;-88
2023/09/18 03:36:54;;;;;;;0.00;0.00;;;;;;;;;;6213326;23;20080;-88
2023/09/18 03:39:20;;;;;;;0.00;0.00;;;18.80;99.90;;;;;;6213489;23;20005;-87
2023/09/18 03:41:46;;;;;;;0.00;0.00;;;;;;;;;;6208954;23;20746;-88
2023/09/18 03:44:11;;;;;;;0.00;0.00;;;18.90;99.90;;;;;;6213284;23;20130;-88
2023/09/18 03:46:37;;;;;;;0.00;0.00;;;;;;;;;;6211795;23;20035;-87
2023/09/18 03:49:03;;;;;;;0.10;0.00;;;;;;;;;;6213143;23;20014;-88
2023/09/18 03:51:29;;;;;;;0.00;0.00;;;;;;;;;;6212789;23;20096;-87
2023/09/18 03:53:58;;;;;;;0.00;0.00;;;19.20;99.90;;;;;;6212359;23;20066;-86
2023/09/18 03:56:24;;;;;;;0.00;0.00;;;;;;;;;;6212803;23;20008;-88
2023/09/18 03:58:51;;;;;;;0.00;0.00;;;;;;;;;;6212755;23;20007;-86
2023/09/18 04:01:16;;;;;;;0.00;0.00;;;19.50;99.90;;;;;;6211957;23;20009;-88
2023/09/18 04:03:42;;;;;;;0.00;0.00;;;;;;;;;;6213142;23;20470;-87
2023/09/18 04:06:08;;;;;;;0.00;0.00;;;;;;;;;;6213656;23;20024;-89
2023/09/18 04:08:34;;;;;;;0.00;0.00;;;;;;;;;;6211873;23;20004;-87
2023/09/18 04:11:00;;;;;;;0.00;0.00;;;19.60;99.90;;;;;;6213890;23;20004;-88
2023/09/18 04:13:26;;;;;;;0.00;0.00;;;19.60;99.90;;;;;;6212194;23;20067;-88
2023/09/18 04:15:56;;;;;;;0.00;0.00;;;;;;;;;;6210593;23;20004;-88
2023/09/18 04:18:22;;;;;;;0.00;0.00;;;19.60;99.90;;;;;;6211165;23;20368;-87
2023/09/18 04:20:50;;;;;;;0.00;0.00;;;19.90;99.90;;;;;;6211330;23;20028;-89
2023/09/18 04:23:21;;;;;;;0.00;0.00;;;19.80;99.90;;;;;;6211475;23;20005;-88
2023/09/18 04:25:47;;;;;;;0.00;0.00;;;20.00;99.90;;;;;;6211925;23;20003;-87
2023/09/18 04:28:14;;;;;;;0.00;0.00;;;20.00;99.90;;;;;;6213533;23;20424;-89
2023/09/18 04:30:40;;;;;;;0.00;0.00;;;19.90;99.90;;;;;;6212336;23;20020;-87
2023/09/18 04:33:06;;;;;;;0.00;0.00;;;;;;;;;;6211304;23;20009;-88
2023/09/18 04:35:32;;;;;;;0.00;0.00;;;;;;;;;;6213692;23;20001;-84
2023/09/18 04:37:59;;;;;;;0.00;0.00;;;19.90;99.90;;;;;;6211441;23;20013;-87
2023/09/18 04:40:26;;;;;;;0.00;0.00;;;20.10;99.90;;;;;;6213474;23;20598;-88
2023/09/18 04:42:52;;;;;;;0.00;0.00;;;20.10;99.90;;;;;;6213272;23;20404;-86
2023/09/18 04:45:18;;;;;;;0.00;0.00;;;;;;;;;;6212295;23;20000;-85
2023/09/18 04:47:44;;;;;;;0.00;0.00;;;;;;;;;;6213686;23;20011;-87
2023/09/18 04:50:10;;;;;;;0.00;0.00;;;;;;;;;;6213832;23;20005;-88
2023/09/18 04:52:36;;;;;;;0.00;0.00;;;20.20;99.90;;;;;;6212322;23;20008;-88
2023/09/18 04:55:03;;;;;;;0.00;0.00;;;;;;;;;;6212865;23;20087;-86
2023/09/18 04:57:28;;;;;;;0.00;0.00;;;20.40;99.90;;;;;;6212539;23;20025;-90
2023/09/18 04:59:55;;;;;;;0.00;0.00;;;;;;;;;;6212211;23;20432;-88
2023/09/18 05:02:21;;;;;;;0.00;0.00;;;;;;;;;;6213368;23;20008;-87
2023/09/18 05:04:47;;;;;;;0.00;0.00;;;;;;;;;;6213406;23;20004;-87
2023/09/18 05:07:13;;;;;;;0.00;0.00;;;;;;;;;;6213945;23;20004;-87
2023/09/18 05:09:40;;;;;;;0.00;0.00;;;;;;;;;;6212266;23;20051;-88
2023/09/18 05:12:08;;;;;;;0.00;0.00;;;20.60;99.90;;;;;;6212861;23;20351;-88
2023/09/18 05:14:34;;;;;;;0.00;0.00;;;20.80;99.90;;;;;;6213197;23;20027;-88
2023/09/18 05:17:00;;;;;;;0.00;0.00;;;;;;;;;;6213007;23;20435;-88
2023/09/18 05:19:26;;;;;;;0.00;0.00;;;;;;;;;;6213783;23;20005;-91
2023/09/18 05:21:52;;;;;;;0.00;0.00;;;;;;;;;;6211612;23;20240;-89
2023/09/18 05:24:26;;;;;;;0.00;0.00;;;20.90;99.90;;;;;;6213314;23;20001;-88
2023/09/18 05:26:53;;;;;;;0.00;0.00;;;20.90;99.90;;;;;;6213066;23;20043;-88
2023/09/18 05:29:19;;;;;;;0.00;0.00;;;21.00;99.90;;;;;;6212054;23;20008;-89
2023/09/18 05:31:45;;;;;;;0.00;0.00;;;21.00;99.90;;;;;;6213422;23;20067;-89
2023/09/18 05:34:11;;;;;;;0.00;0.00;;;;;;;;;;6212577;23;20004;-89
2023/09/18 05:36:37;;;;;;;0.00;0.00;;;;;;;;;;6212906;23;20032;-87
2023/09/18 05:39:03;;;;;;;0.00;0.00;;;;;;;;;;6211346;23;20047;-90
2023/09/18 05:41:29;;;;;;;0.00;0.00;;;21.20;99.90;;;;;;6213282;23;20079;-89
2023/09/18 05:43:56;;;;;;;0.00;0.00;;;21.20;99.90;;;;;;6212862;23;20028;-87
2023/09/18 05:46:22;;;;;;;0.00;0.00;;;;;;;;;;6213165;23;20084;-87
2023/09/18 05:48:48;;;;;;;0.00;0.00;;;;;;;;;;6214750;23;20040;-89
2023/09/18 05:51:15;;;;;;;0.00;0.00;;;21.20;99.90;;;;;;6215169;23;20087;-90
2023/09/18 05:53:41;;;;;;;0.00;0.00;;;;;;;;;;6212793;23;20046;-89
2023/09/18 05:56:09;;;;;;;0.00;0.00;;;21.20;99.90;;;;;;6212996;23;20335;-88
2023/09/18 05:58:35;;;;;;;0.00;0.00;;;21.20;99.90;;;;;;6213183;23;20011;-88
2023/09/18 06:01:01;;;;;;;0.00;0.00;;;21.10;99.90;;;;;;6212030;23;20008;-89
2023/09/18 06:03:30;;;;;;;0.00;0.00;;;;;;;;;;6212847;23;20030;-87
2023/09/18 06:05:56;;;;;;;0.00;0.00;;;;;;;;;;6212172;23;20027;-88
2023/09/18 06:08:23;;;;;;;0.00;0.00;;;;;;;;;;6213017;23;20372;-88
2023/09/18 06:10:49;;;;;;;0.00;0.00;;;21.20;99.90;;;;;;6214870;23;20035;-89
2023/09/18 06:13:15;;;;;;;0.00;0.00;;;;;;;;;;6213254;23;20005;-87
2023/09/18 06:15:41;;;;;;;0.00;0.00;;;;;;;;;;6212658;23;20362;-85
2023/09/18 06:18:07;;;;;;;0.00;0.00;;;;;;;;;;6212960;23;20054;-87
2023/09/18 06:20:32;;;;;;;0.00;0.00;;;21.40;99.90;;;;;;6213332;23;20008;-88
2023/09/18 06:22:58;;;;;;;0.00;0.00;;;;;;;;;;6213128;23;20039;-89
2023/09/18 06:25:24;;;;;;;0.00;0.00;;;;;;;;;;6212828;23;19997;-90
2023/09/18 06:27:50;;;;;;;0.00;0.00;;;;;;;;;;6212931;23;20000;-89
2023/09/18 06:30:16;;;;;;;0.00;0.00;;;;;;;;;;6213158;23;20012;-88
2023/09/18 06:32:42;;;;;;;0.00;0.00;;;;;;;;;;6213093;23;20118;-87
2023/09/18 06:35:09;;;;;;;0.00;0.00;;;;;;;;;;6212783;23;20001;-88
2023/09/18 06:37:34;;;;;;;0.00;0.00;;;21.30;99.90;;;;;;6213732;23;20466;-90
2023/09/18 06:40:03;;;;;;;0.00;0.00;;;21.30;99.90;;;;;;6213859;23;20001;-89
2023/09/18 06:42:29;;;;;;;0.00;0.00;;;;;;;;;;6212859;23;20435;-89
2023/09/18 06:44:56;;;;;;;0.00;0.00;;;;;;;;;;6214230;23;20032;-90
2023/09/18 06:47:24;;;;;;;0.00;0.00;;;21.20;99.90;;;;;;6212631;23;20008;-89
2023/09/18 06:49:49;;;;;;;0.00;0.00;;;21.40;99.90;;;;;;6213221;23;20046;-90
2023/09/18 06:52:16;;;;;;;0.00;0.00;;;;;;;;;;6217741;23;20059;-86
2023/09/18 06:54:43;;;;;;;0.00;0.00;;;21.40;99.90;;;;;;6192102;23;20016;-89
2023/09/18 06:57:09;;;;;;;0.00;0.00;;;;;;;;;;6190024;23;20012;-89
2023/09/18 06:59:36;;;;;;;0.00;0.00;;;;;;;;;;6187907;23;20074;-89
2023/09/18 07:02:02;;;;;;;0.00;0.00;;;21.40;99.90;;;;;;6188003;23;20004;-90
2023/09/18 07:04:28;;;;;;;0.00;0.00;;;21.40;99.90;;;;;;6185085;23;20087;-88
2023/09/18 07:06:54;;;;;;;0.00;0.00;;;;;;;;;;6186326;23;20087;-89
2023/09/18 07:09:22;;;;;;;0.00;0.00;;;21.60;99.90;;;;;;6187879;23;19997;-89
2023/09/18 07:11:48;;;;;;;0.00;0.00;;;;;;;;;;6183647;23;20004;-89
2023/09/18 07:14:14;;;;;;;0.00;0.00;;;;;;;;;;6186899;23;20092;-88
2023/09/18 07:16:40;;;;;;;0.00;0.00;;;;;;;;;;6188097;23;20335;-88
2023/09/18 07:19:07;;;;;;;0.00;0.00;;;;;;;;;;6188466;23;20443;-88
2023/09/18 07:21:34;;;;;;;0.00;0.00;;;22.10;99.90;;;;;;6189103;23;20142;-90
2023/09/18 07:24:00;;;;;;;0.00;0.00;;;;;;;;;;6188321;23;20063;-88
2023/09/18 07:26:26;;;;;;;0.00;0.00;;;;;;;;;;6188252;23;20030;-86
2023/09/18 07:28:52;;;;;;;0.00;0.00;;;;;;;;;;6186497;23;19996;-87
2023/09/18 07:31:18;;;;;;;0.00;0.00;;;;;;;;;;6188435;23;20001;-89
2023/09/18 07:33:44;;;;;;;0.00;0.00;;;;;;;;;;6188108;23;20043;-88
2023/09/18 07:36:10;;;;;;;0.00;0.00;;;22.40;99.90;;;;;;6187513;23;20008;-88
2023/09/18 07:38:37;;;;;;;0.00;0.00;;;;;;;;;;6187582;23;20073;-88
2023/09/18 07:41:02;;;;;;;0.00;0.00;;;22.60;99.90;;;;;;6187129;23;20096;-87
2023/09/18 07:43:28;;;;;;;0.00;0.00;;;;;;;;;;6187634;23;19997;-88
2023/09/18 07:45:54;;;;;;;0.00;0.00;;;22.70;99.90;;;;;;6187007;23;20000;-89
2023/09/18 07:48:20;;;;;;;0.00;0.00;;;;;;;;;;6185450;23;20000;-88
2023/09/18 07:50:49;;;;;;;0.00;0.00;;;;;;;;;;6186646;23;20012;-87
2023/09/18 07:53:15;;;;;;;0.00;0.00;;;;;;;;;;6194829;23;20408;-89
2023/09/18 07:55:40;;;;;;;0.00;0.00;;;23.10;99.90;;;;;;6209974;23;20051;-88
2023/09/18 07:58:06;;;;;;;0.00;0.00;;;;;;;;;;6209966;23;20075;-89
2023/09/18 08:00:33;;;;;;;0.00;0.00;;;23.10;99.90;;;;;;6211015;23;20008;-89
2023/09/18 08:03:00;;;;;;;0.00;0.00;;;23.20;99.90;;;;;;6209447;23;20001;-89
2023/09/18 08:05:28;;;;;;;0.00;0.00;;;23.30;99.90;;;;;;6210243;23;20376;-89
2023/09/18 08:07:56;;;;;;;0.00;0.00;;;23.40;99.90;;;;;;6209527;23;20039;-88
2023/09/18 08:10:22;;;;;;;0.00;0.00;;;;;;;;;;6208443;23;20411;-88
2023/09/18 08:12:49;;;;;;;0.00;0.00;;;23.50;99.90;;;;;;6209286;23;20007;-88
2023/09/18 08:15:15;;;;;;;0.00;0.00;;;23.50;99.90;;;;;;6211609;23;20012;-89
2023/09/18 08:17:42;;;;;;;0.00;0.00;;;;;;;;;;6208410;23;20005;-87
2023/09/18 08:20:12;;;;;;;0.00;0.00;;;23.60;99.90;;;;;;6211704;23;20000;-88
2023/09/18 08:22:38;;;;;;;0.00;0.00;;;23.50;99.90;;;;;;6211784;23;20092;-86
2023/09/18 08:25:05;;;;;;;0.00;0.00;;;23.50;99.90;;;;;;6209743;23;20033;-89
2023/09/18 08:27:31;;;;;;;0.00;0.00;;;;;;;;;;6211215;23;20007;-89
2023/09/18 08:29:57;;;;;;;0.00;0.00;;;;;;;;;;6211559;23;20076;-88
2023/09/18 08:32:22;;;;;;;0.00;0.00;;;23.40;99.90;;;;;;6210697;23;20432;-88
2023/09/18 08:34:48;;;;;;;0.00;0.00;;;;;;;;;;6210085;23;20080;-87
2023/09/18 08:37:14;;;;;;;0.00;0.00;;;23.40;99.90;;;;;;6210013;23;20115;-88
2023/09/18 08:39:40;;;;;;;0.00;0.00;;;;;;;;;;6211540;23;20047;-87
2023/09/18 08:42:07;;;;;;;0.00;0.00;;;23.40;99.90;;;;;;6210460;23;20058;-87
2023/09/18 08:44:34;;;;;;;0.00;0.00;;;23.50;99.90;;;;;;6186457;23;20008;-88
2023/09/18 08:47:02;;;;;;;0.00;0.00;;;23.40;99.90;;;;;;6210408;23;20054;-89
2023/09/18 08:49:29;;;;;;;0.00;0.00;;;23.40;99.90;;;;;;6212197;23;20015;-88
2023/09/18 08:51:55;;;;;;;0.00;0.00;;;23.40;99.90;;;;;;6210023;23;20009;-88
2023/09/18 08:54:23;;;;;;;0.00;0.00;;;23.30;99.90;;;;;;6212504;23;20027;-89
2023/09/18 08:56:49;;;;;;;0.00;0.00;;;23.40;99.90;;;;;;6211804;23;20000;-88
2023/09/18 08:59:16;;;;;;;0.00;0.00;;;23.40;99.90;;;;;;6211158;23;20841;-89
2023/09/18 09:01:42;;;;;;;0.00;0.00;;;;;;;;;;6210084;23;20341;-86
2023/09/18 09:04:07;;;;;;;0.00;0.00;;;23.50;99.90;;;;;;6212864;23;20007;-88
2023/09/18 09:06:33;;;;;;;0.00;0.00;;;23.50;99.90;;;;;;6212894;23;20036;-89
2023/09/18 09:08:59;;;;;;;0.00;0.00;;;23.40;99.90;;;;;;6213201;23;20005;-88
2023/09/18 09:11:25;;;;;;;0.00;0.00;;;;;;;;;;6212045;23;20011;-87
2023/09/18 09:14:11;;;;;;;0.00;0.00;;;23.50;99.90;;;;;;6213101;23;20013;-88
2023/09/18 09:16:39;;;;;;;0.00;0.00;;;23.60;99.90;;;;;;6212536;23;20031;-89
2023/09/18 09:19:05;;;;;;;0.00;0.00;;;23.60;99.90;;;;;;6212143;23;20005;-88
2023/09/18 09:21:43;;;;;;;0.00;0.00;;;23.70;99.90;;;;;;6212609;23;20008;-88
2023/09/18 09:24:08;;;;;;;0.00;0.00;;;23.60;99.90;;;;;;6212698;23;20067;-89
2023/09/18 09:26:35;;;;;;;0.00;0.00;;;23.70;99.90;;;;;;6211556;23;20424;-87
2023/09/18 09:29:17;;;;;;;0.00;0.00;;;23.70;99.90;;;;;;6212565;23;20066;-87
2023/09/18 09:31:43;;;;;;;0.00;0.00;;;;;;;;;;6213750;23;20001;-88
2023/09/18 09:34:09;;;;;;;0.00;0.00;;;;;;;;;;6210824;23;20012;-88
2023/09/18 09:36:35;;;;;;;0.00;0.00;;;23.50;99.90;;;;;;6210629;23;20004;-88
2023/09/18 09:39:04;;;;;;;0.00;0.00;;;;;;;;;;6211799;23;20087;-87
2023/09/18 09:41:31;;;;;;;0.00;0.00;;;23.80;99.90;;;;;;6211224;23;20009;-88
2023/09/18 09:43:57;;;;;;;0.00;0.00;;;23.70;99.90;;;;;;6210976;23;20058;-90
2023/09/18 09:46:25;;;;;;;0.00;0.00;;;23.80;99.90;;;;;;6211058;23;20440;-88
2023/09/18 09:49:06;;;;;;;0.00;0.00;;;24.00;99.90;;;;;;6211399;23;20103;-89
2023/09/18 09:51:34;;;;;;;0.00;0.00;;;24.10;99.90;;;;;;6211484;23;20014;-85
2023/09/18 09:54:00;;;;;;;0.00;0.00;;;24.20;99.90;;;;;;6211673;23;20059;-87
2023/09/18 09:56:44;;;;;;;0.00;0.00;;;24.30;99.90;;;;;;6211998;23;20005;-88
2023/09/18 09:59:11;;;;;;;0.00;0.00;;;24.40;99.90;;;;;;6211694;23;20009;-90
2023/09/18 10:01:38;;;;;;;0.00;0.00;;;24.50;99.90;;;;;;6211890;23;20084;-88
2023/09/18 10:04:07;;;;;;;0.00;0.00;;;24.20;99.90;;;;;;6211682;23;20005;-87
2023/09/18 10:06:34;;;;;;;0.00;0.00;;;24.20;99.90;;;;;;6209197;23;20008;-86
2023/09/18 10:09:07;;;;;;;0.00;0.00;;;24.20;99.90;;;;;;6210671;23;20011;-88
2023/09/18 10:11:36;;;;;;;0.00;0.00;;;24.10;99.90;;;;;;6209575;23;20351;-87
2023/09/18 10:14:13;;;;;;;0.00;0.00;;;24.00;99.90;;;;;;6213014;23;20005;-88
2023/09/18 10:16:41;;;;;;;0.00;0.00;;;24.10;99.90;;;;;;6211780;23;20557;-88
2023/09/18 10:19:26;;;;;;;0.00;0.00;;;24.10;99.90;;;;;;6208587;23;20044;-86
2023/09/18 10:22:20;;;;;;;0.00;0.00;;;24.10;99.90;;;;;;6210692;23;20066;-88
2023/09/18 10:24:47;;;;;;;0.00;0.00;;;24.20;99.90;;;;;;6157327;23;20004;-89
2023/09/18 10:27:14;;;;;;;0.00;0.00;;;24.20;99.90;;;;;;6211146;23;20011;-88
2023/09/18 10:29:41;;;;;;;0.00;0.00;;;24.20;99.90;;;;;;6211950;23;20055;-88
2023/09/18 10:32:08;;;;;;;0.00;0.00;;;24.30;99.90;;;;;;6211112;23;20375;-86
2023/09/18 10:34:34;;;;;;;0.00;0.00;;;24.50;99.90;;;;;;6210567;23;20087;-88
2023/09/18 10:37:06;;;;;;;0.00;0.00;;;24.60;99.90;;;;;;6207990;23;20024;-87
2023/09/18 10:39:35;;;;;;;0.00;0.00;;;24.70;99.90;;;;;;6210333;23;20321;-88
2023/09/18 10:42:03;;;;;;;0.00;0.00;;;24.80;99.90;;;;;;6210441;23;20474;-90
2023/09/18 10:44:31;;;;;;;0.00;0.00;;;25.00;99.90;;;;;;6210912;23;20436;-87
2023/09/18 10:46:58;;;;;;;0.00;0.00;;;24.70;99.90;;;;;;6210779;23;20005;-89
2023/09/18 10:49:24;;;;;;;0.00;0.00;;;24.50;99.90;;;;;;6211412;23;19997;-87
2023/09/18 10:51:54;;;;;;;0.00;0.00;;;24.60;99.90;;;;;;6208226;23;20031;-87
2023/09/18 10:54:23;;;;;;;;;;;25.80;99.90;;;;;;6209386;23;20797;-88
2023/09/18 10:56:50;;;;;;;0.00;0.00;;;;;;;;;;6209804;23;19990;-88
2023/09/18 10:59:17;;;;;;;0.00;0.00;;;24.80;99.90;;;;;;6208540;23;20493;-88
2023/09/18 11:01:43;;;;;;;0.00;0.00;;;24.80;99.90;;;;;;6210209;23;20008;-86
2023/09/18 11:04:10;;;;;;;0.00;0.00;;;;;;;;;;6210429;23;20511;-87
2023/09/18 11:06:54;;;;;;;0.00;0.00;;;24.90;99.90;;;;;;6210184;23;20000;-85
2023/09/18 11:09:31;;;;;;;0.00;0.00;;;25.00;99.90;;;;;;6209639;23;20008;-86
2023/09/18 11:11:57;;;;;;;0.00;0.00;;;25.10;99.90;;;;;;6210355;23;20028;-87
2023/09/18 11:14:41;;;;;;;0.00;0.00;;;25.20;99.90;;;;;;6210375;23;20015;-86
2023/09/18 11:17:27;;;;;;;0.00;0.00;;;25.20;99.90;;;;;;6209695;23;20432;-88
2023/09/18 11:20:17;;;;;;;0.00;0.00;;;25.20;99.90;;;;;;6210414;23;20036;-87
2023/09/18 11:22:57;;;;;;;0.00;0.00;;;25.10;99.90;;;;;;6208089;23;20047;-86
2023/09/18 11:25:37;;;;;;;0.00;0.00;;;25.00;99.90;;;;;;6210132;23;20015;-88
2023/09/18 11:28:07;;;;;;;0.00;0.00;;;25.00;99.90;;;;;;6213769;23;20343;-87
2023/09/18 11:30:33;;;;;;;0.00;0.00;;;;;;;;;;6213159;23;20015;-87
2023/09/18 11:32:59;;;;;;;0.00;0.00;;;25.00;99.90;;;;;;6213543;23;20008;-86
2023/09/18 11:35:25;;;;;;;0.00;0.00;;;25.00;99.90;;;;;;6214524;23;19997;-89
2023/09/18 11:38:10;;;;;;;0.00;0.00;;;25.10;99.90;;;;;;6225376;23;20063;-89
2023/09/18 11:40:39;;;;;;;0.00;0.00;;;25.20;99.90;;;;;;6217029;23;20008;-88
2023/09/18 11:43:29;;;;;;;0.00;0.00;;;25.30;99.90;;;;;;6214489;23;20001;-87
2023/09/18 11:45:59;;;;;;;0.00;0.00;;;25.30;99.90;;;;;;6216613;23;20235;-88
2023/09/18 11:48:29;;;;;;;0.00;0.00;;;25.30;99.90;;;;;;6216884;23;20004;-88
2023/09/18 11:50:57;;;;;;;0.00;0.00;;;25.40;99.90;;;;;;6215521;23;20011;-87
2023/09/18 11:53:24;;;;;;;0.00;0.00;;;25.40;99.90;;;;;;6216291;23;20026;-88
2023/09/18 11:55:50;;;;;;;0.00;0.00;;;;;;;;;;6216740;23;20062;-89
2023/09/18 11:58:16;;;;;;;0.00;0.00;;;;;;;;;;6219158;23;20420;-89
2023/09/18 12:00:48;;;;;;;0.00;0.00;;;;;;;;;;6217825;23;20004;-89
2023/09/18 12:03:27;;;;;;;0.00;0.00;;;25.30;99.90;;;;;;6218007;23;20000;-89
2023/09/18 12:05:58;;;;;;;0.00;0.00;;;25.60;99.90;;;;;;6216761;23;20004;-88
2023/09/18 12:08:28;;;;;;;0.00;0.00;;;25.40;99.90;;;;;;6216579;23;20005;-88
2023/09/18 12:10:54;;;;;;;;;;;26.00;99.90;;;;;;6217030;23;20048;-88
2023/09/18 12:13:20;;;;;;;0.00;0.00;;;;;;;;;;6216109;23;19900;-88
2023/09/18 12:15:47;;;;;;;0.00;0.00;;;25.20;99.90;;;;;;6215448;23;20012;-88
2023/09/18 12:18:14;;;;;;;0.00;0.00;;;25.10;99.90;;;;;;6214412;23;20012;-84
2023/09/18 12:20:49;;;;;;;0.00;0.00;;;25.10;99.90;;;;;;6215993;23;20051;-89
2023/09/18 12:23:20;;;;;;;0.00;0.00;;;25.90;99.90;;;;;;6217745;23;20378;-88
2023/09/18 12:25:56;;;;;;;0.00;0.00;;;25.00;99.90;;;;;;6216287;23;20036;-89
2023/09/18 12:28:21;;;;;;;0.00;0.00;;;25.00;99.90;;;;;;6217010;23;20000;-87
2023/09/18 12:30:50;;;;;;;0.00;0.00;;;;;;;;;;6217214;23;20401;-87
2023/09/18 12:33:16;;;;;;;0.00;0.00;;;25.00;99.90;;;;;;6216880;23;20004;-87
2023/09/18 12:35:42;;;;;;;0.00;0.00;;;25.10;99.90;;;;;;6218560;23;20236;-87
2023/09/18 12:38:18;;;;;;;0.00;0.00;;;25.10;99.90;;;;;;6216274;23;20340;-87
2023/09/18 12:40:46;;;;;;;0.00;0.00;;;;;;;;;;6216263;23;20355;-87
2023/09/18 12:43:12;;;;;;;0.00;0.00;;;;;;;;;;6215057;23;20670;-89
2023/09/18 12:45:38;;;;;;;0.00;0.00;;;25.00;99.90;;;;;;6215069;23;20046;-87
2023/09/18 12:48:06;;;;;;;0.00;0.00;;;27.10;99.90;;;;;;6216826;23;20020;-88
2023/09/18 12:50:32;;;;;;;0.00;0.00;;;;;;;;;;6215825;23;20000;-87
2023/09/18 12:53:15;;;;;;;0.00;0.00;;;25.10;99.90;;;;;;6215817;23;20043;-87
2023/09/18 12:55:42;;;;;;;0.00;0.00;;;25.20;99.90;;;;;;6215954;23;20005;-87
2023/09/18 12:58:11;;;;;;;0.00;0.00;;;25.20;99.90;;;;;;6215902;23;20009;-87
2023/09/18 13:00:36;;;;;;;0.00;0.00;;;25.20;99.90;;;;;;6214798;23;20059;-87
2023/09/18 13:03:04;;;;;;;0.00;0.00;;;25.40;99.90;;;;;;6214785;23;20009;-87
2023/09/18 13:05:32;;;;;;;0.00;0.00;;;;;;;;;;6215185;23;20007;-88
2023/09/18 13:08:05;;;;;;;0.00;0.00;;;25.40;99.90;;;;;;6213640;23;20004;-88
2023/09/18 13:10:44;;;;;;;0.00;0.00;;;25.50;99.90;;;;;;6213970;23;20021;-87
2023/09/18 13:13:21;;;;;;;;;;;25.80;99.90;;;;;;6216423;23;20002;-87
2023/09/18 13:15:48;;;;;;;0.00;0.00;;;26.00;99.90;;;;;;6216526;23;19903;-87
2023/09/18 13:18:15;;;;;;;0.00;0.00;;;25.80;99.90;;;;;;6214366;23;20586;-87
2023/09/18 13:20:41;;;;;;;0.00;0.00;;;;;;;;;;6214927;23;20023;-88
2023/09/18 13:23:07;;;;;;;0.00;0.00;;;25.40;99.90;;;;;;6215248;23;20053;-88
2023/09/18 13:25:44;;;;;;;0.00;0.00;;;25.20;99.90;;;;;;6214461;23;20009;-86
2023/09/18 13:28:10;;;;;;;0.00;0.00;;;;;;;;;;6215007;23;20004;-87